»·PEaware :: N415CS KAVX-L35

N415CS :: KAVX-L35

FLIGHT INFORMATION

Flight Status: Arrived
Operator: Privately registered:
United States
More flights under this callsign
Pilot: Kyle A. (14988)
Aircraft: CESSNA 182 SKYLANE
(C182)
More flights by this aircraft type
Origin: KAVX Catalina
United States
Destination: L35 Big Bear City
United States
More flights between these airports :: More routes between these airports
Route: SXC V21 ARRAN
File this flight plan on PilotEdge
Remarks:
Altitude:
(Current/Filed)
11,000ft
Speed:
(Current/Filed)
135kts
Departed: 01-Dec-17 04:17 PM
Arrived: 01-Dec-17 05:07 PM
Distance/Time
Traveled:
93nm/0:50
Distance/Time
To Go:
Arrived

Flight Plot

Page will automatically refresh every two minutes.

Flight plan parsing failed; only flown route is shown


Map Options




Map Legend


Flown Route
Filed Route
Departure Airport
Arrival Airport
Navaid (VOR, NDB)
Fix

Horizontal Profiles

Position Reports

Time Latitude Longitude Heading Altitude Ground
Speed
01-Dec-17 16:14 33.403726 -118.415519 144 1605ft 0kts
01-Dec-17 16:15 33.403724 -118.415518 144 1605ft 0kts
01-Dec-17 16:16 33.403723 -118.415517 144 1605ft 0kts
01-Dec-17 16:17 33.403721 -118.415515 144 1605ft 0kts
01-Dec-17 16:18 33.403720 -118.415514 144 1605ft 0kts
01-Dec-17 16:19 33.404232 -118.414996 357 1605ft 6kts
01-Dec-17 16:20 33.406796 -118.412036 54 1605ft 20kts
01-Dec-17 16:21 33.407187 -118.411396 18 1605ft 0kts
01-Dec-17 16:22 33.402951 -118.419460 242 1670ft 80kts
01-Dec-17 16:23 33.388846 -118.443488 235 2412ft 86kts
01-Dec-17 16:24 33.375696 -118.434884 81 3193ft 83kts
01-Dec-17 16:25 33.387707 -118.407828 31 3812ft 117kts
01-Dec-17 16:26 33.414354 -118.384864 35 4634ft 115kts
01-Dec-17 16:27 33.437725 -118.364169 35 5495ft 93kts
01-Dec-17 16:28 33.458490 -118.345707 36 6173ft 91kts
01-Dec-17 16:29 33.479151 -118.327157 37 6736ft 96kts
01-Dec-17 16:30 33.501505 -118.307144 36 7271ft 104kts
01-Dec-17 16:31 33.525429 -118.285732 36 7770ft 109kts
01-Dec-17 16:32 33.550045 -118.263798 36 8271ft 110kts
01-Dec-17 16:33 33.571632 -118.244504 36 8699ft 110kts
01-Dec-17 16:34 33.596124 -118.222621 35 9184ft 108kts
01-Dec-17 16:35 33.616561 -118.204343 35 9602ft 107kts
01-Dec-17 16:36 33.640286 -118.183112 34 10088ft 105kts
01-Dec-17 16:37 33.663406 -118.162419 33 10572ft 102kts
01-Dec-17 16:38 33.685958 -118.142207 33 10996ft 105kts
01-Dec-17 16:39 33.713101 -118.117846 34 10996ft 134kts
01-Dec-17 16:40 33.740649 -118.093071 34 10991ft 143kts
01-Dec-17 16:41 33.772706 -118.064219 34 10999ft 144kts
01-Dec-17 16:42 33.791810 -118.021371 71 11000ft 154kts
01-Dec-17 16:43 33.805236 -117.969952 71 10992ft 161kts
01-Dec-17 16:44 33.817992 -117.920749 71 10992ft 149kts
01-Dec-17 16:45 33.830118 -117.873812 71 11001ft 146kts
01-Dec-17 16:46 33.842191 -117.827145 71 11000ft 145kts
01-Dec-17 16:47 33.852909 -117.785458 71 11003ft 162kts
01-Dec-17 16:48 33.865943 -117.732693 71 11002ft 161kts
01-Dec-17 16:49 33.878696 -117.683592 71 11004ft 149kts
01-Dec-17 16:50 33.891564 -117.633842 71 11009ft 158kts
01-Dec-17 16:51 33.904180 -117.584852 71 10992ft 149kts
01-Dec-17 16:52 33.917181 -117.534614 68 11002ft 159kts
01-Dec-17 16:53 33.945412 -117.497616 42 10993ft 147kts
01-Dec-17 16:54 33.974087 -117.463223 42 11002ft 144kts
01-Dec-17 16:55 34.002393 -117.429308 41 10999ft 143kts
01-Dec-17 16:56 34.030876 -117.395118 41 11001ft 144kts
01-Dec-17 16:57 34.062077 -117.359501 42 11003ft 158kts
01-Dec-17 16:58 34.086738 -117.328219 43 10995ft 151kts
01-Dec-17 16:59 34.120708 -117.287102 42 11002ft 146kts
01-Dec-17 17:00 34.151179 -117.250482 42 11006ft 157kts
01-Dec-17 17:01 34.177818 -117.218368 42 10997ft 165kts
01-Dec-17 17:02 34.207286 -117.182746 42 11013ft 150kts
01-Dec-17 17:03 34.222187 -117.141332 79 11024ft 151kts
01-Dec-17 17:04 34.229827 -117.091869 78 11038ft 148kts
01-Dec-17 17:05 34.237732 -117.037649 79 10342ft 175kts
01-Dec-17 17:06 34.244284 -116.979740 92 9531ft 172kts
01-Dec-17 17:07 34.245082 -116.925973 90 8691ft 145kts
01-Dec-17 17:08 34.245360 -116.877232 90 8076ft 134kts
01-Dec-17 17:09 34.245428 -116.837921 88 7988ft 102kts
01-Dec-17 17:10 34.257294 -116.815950 351 7333ft 91kts
01-Dec-17 17:11 34.263905 -116.835864 268 7022ft 68kts
01-Dec-17 17:12 34.263825 -116.853150 259 6755ft 8kts
01-Dec-17 17:13 34.263239 -116.852065 89 6755ft 7kts
01-Dec-17 17:14 34.263099 -116.851623 353 6755ft 0kts
01-Dec-17 17:15 34.263014 -116.851608 1 6755ft 0kts
01-Dec-17 17:16 34.263040 -116.851607 359 6755ft 0kts
01-Dec-17 17:17 34.263040 -116.851607 359 6755ft 0kts
01-Dec-17 17:18 34.263040 -116.851607 359 6755ft 0kts
01-Dec-17 17:19 34.263040 -116.851607 359 6755ft 0kts

Navigation Log

Ident Type
Flight plan parsing failed, navigation log unavailable